Terminal Aerodrome Forecast
Issued by NWS Jackson, MS

Home | Current Version | Previous Version | Text Only | Print | Product List | Glossary On
Versions: 1 2 3 4 5 6 7 8 9 10 11 12 13 14 15
000
FTUS44 KJAN 271700
TAFGLH
TAF
KGLH 271733Z 2718/2818 15008KT P6SM VCSH OVC010
     FM272000 13007KT 5SM -RA BR VCTS OVC007CB
     FM280300 01010KT 4SM -RA BR VCTS OVC007CB
     FM280900 36014KT P6SM OVC010=

USA.gov is the U.S. government's official web portal to all federal, state and local government web resources and services.